Jump to content

RVR causes Crash (I think)


Recommended Posts

This has happened in the past but I hadn't yet been able to pin down what causes vATIS to crash.

vATIS crashed after Miami downloaded a new METAR (below). I was able to open it back up, and select another profile, and it worked fine. My hunch is that it's throwing some errors when it gets complex RVR parsing.

KMIA 090013Z VRB03KT 2 1/2SM R09/4000VP6000FT +RA BR SCT007 BKN015CB OVC028 23/22 A3010 RMK AO2 CB OHD MOV E P0040 T02280217

Josh Glottmann
Deputy Air Traffic Manager
Oakland ARTCC
[email protected]

Link to post
Share on other sites
  • 3 weeks later...

Please sign in to comment

You will be able to leave a comment after signing in



Sign In Now
×
×
  • Create New...